createdAt,value
2018-11-25T00:03:58.771Z,5.20
2018-11-25T00:09:02.366Z,5.20
2018-11-25T00:14:05.878Z,5.20
2018-11-25T00:19:09.190Z,5.20
2018-11-25T00:24:12.483Z,5.20
2018-11-25T00:29:15.778Z,5.20
2018-11-25T00:34:19.095Z,5.10
2018-11-25T00:39:22.378Z,5.10
2018-11-25T00:44:25.633Z,5.10
2018-11-25T00:49:28.946Z,5.10
2018-11-25T00:54:32.235Z,5.20
2018-11-25T00:59:35.542Z,5.20
2018-11-25T01:04:38.819Z,5.20
2018-11-25T01:09:42.229Z,5.20
2018-11-25T01:14:45.473Z,5.20
2018-11-25T01:19:48.766Z,5.20
2018-11-25T01:24:52.111Z,5.20
2018-11-25T01:29:55.398Z,5.20
2018-11-25T01:35:01.044Z,5.20
2018-11-25T01:40:02.024Z,5.20
2018-11-25T01:45:05.907Z,5.20
2018-11-25T01:50:11.972Z,5.20
2018-11-25T01:55:17.099Z,5.10
2018-11-25T02:00:20.955Z,5.10
2018-11-25T02:05:24.465Z,5.10
2018-11-25T02:10:27.753Z,5.10
2018-11-25T02:15:31.148Z,5.10
2018-11-25T02:20:34.419Z,5.10
2018-11-25T02:25:37.690Z,5.10
2018-11-25T02:30:41.002Z,5.10
2018-11-25T02:35:44.271Z,5.10
2018-11-25T02:40:47.631Z,5.10
2018-11-25T02:45:50.986Z,5.10
2018-11-25T02:50:54.272Z,5.10
2018-11-25T02:55:57.600Z,5.00
2018-11-25T03:01:05.101Z,5.00
2018-11-25T03:06:08.417Z,4.90
2018-11-25T03:11:11.709Z,4.90
2018-11-25T03:16:15.042Z,4.90
2018-11-25T03:21:18.299Z,4.90
2018-11-25T03:26:21.633Z,4.90
2018-11-25T03:31:24.909Z,4.90
2018-11-25T03:36:28.202Z,4.80
2018-11-25T03:41:31.487Z,4.90
2018-11-25T03:46:34.814Z,4.80
2018-11-25T03:51:38.201Z,4.80
2018-11-25T03:56:41.475Z,4.80
2018-11-25T04:01:44.776Z,4.80
2018-11-25T04:06:48.140Z,4.80
2018-11-25T04:11:51.421Z,4.70
2018-11-25T04:16:54.824Z,4.70
2018-11-25T04:21:58.095Z,4.70
2018-11-25T04:32:04.392Z,4.60
2018-11-25T04:37:07.655Z,4.70
2018-11-25T04:42:11.175Z,4.70
2018-11-25T04:47:14.714Z,4.70
2018-11-25T04:52:18.074Z,4.70
2018-11-25T04:57:21.333Z,4.60
2018-11-25T05:02:24.610Z,4.50
2018-11-25T05:07:27.937Z,4.50
2018-11-25T05:12:31.738Z,4.50
2018-11-25T05:17:34.996Z,4.50
2018-11-25T05:22:38.315Z,4.50
2018-11-25T05:27:41.682Z,4.50
2018-11-25T05:32:44.984Z,4.50
2018-11-25T05:37:48.249Z,4.50
2018-11-25T05:42:51.539Z,4.40
2018-11-25T05:47:54.873Z,4.40
2018-11-25T05:52:58.203Z,4.40
2018-11-25T05:58:01.473Z,4.40
2018-11-25T06:03:04.809Z,4.40
2018-11-25T06:08:08.169Z,4.40
2018-11-25T06:13:11.445Z,4.40
2018-11-25T06:18:15.879Z,4.40
2018-11-25T06:23:19.158Z,4.40
2018-11-25T06:28:22.544Z,4.30
2018-11-25T06:33:25.875Z,4.30
2018-11-25T06:38:29.169Z,4.30
2018-11-25T06:43:32.459Z,4.20
2018-11-25T06:48:35.734Z,4.30
2018-11-25T06:53:39.182Z,4.30
2018-11-25T06:58:42.458Z,4.30
2018-11-25T07:03:45.718Z,4.40
2018-11-25T07:08:49.055Z,4.40
2018-11-25T07:13:52.354Z,4.30
2018-11-25T07:18:55.615Z,4.30
2018-11-25T07:23:59.951Z,4.30
2018-11-25T07:29:03.370Z,4.30
2018-11-25T07:34:06.747Z,4.40
2018-11-25T07:39:10.091Z,4.40
2018-11-25T07:44:13.499Z,4.40
2018-11-25T07:49:16.811Z,4.40
2018-11-25T07:54:20.082Z,4.30
2018-11-25T07:59:23.354Z,4.30
2018-11-25T08:04:26.631Z,4.40
2018-11-25T08:09:30.014Z,4.40
2018-11-25T08:14:33.352Z,4.30
2018-11-25T08:19:36.836Z,4.40
2018-11-25T08:24:40.132Z,4.40
2018-11-25T08:29:43.408Z,4.30
2018-11-25T08:34:46.761Z,4.20
2018-11-25T08:39:50.031Z,4.30
2018-11-25T08:44:54.096Z,4.20
2018-11-25T08:54:59.853Z,4.10
2018-11-25T09:00:03.373Z,4.20
2018-11-25T09:05:07.589Z,4.20
2018-11-25T09:10:21.145Z,4.30
2018-11-25T09:15:27.663Z,4.10
2018-11-25T09:20:30.966Z,4.20
2018-11-25T09:25:34.245Z,4.20
2018-11-25T09:30:37.573Z,4.20
2018-11-25T09:35:40.935Z,4.30
2018-11-25T09:40:44.785Z,4.40
2018-11-25T09:45:47.502Z,4.40
2018-11-25T09:50:50.766Z,4.40
2018-11-25T09:55:54.041Z,4.50
2018-11-25T10:00:57.311Z,4.60
2018-11-25T10:06:00.582Z,4.50
2018-11-25T10:11:03.856Z,4.40
2018-11-25T10:16:07.149Z,4.50
2018-11-25T10:21:10.462Z,4.60
2018-11-25T10:26:13.775Z,4.70
2018-11-25T10:31:17.086Z,4.50
2018-11-25T10:36:20.362Z,4.60
2018-11-25T10:41:23.690Z,4.70
2018-11-25T10:46:27.026Z,4.80
2018-11-25T10:51:30.297Z,4.70
2018-11-25T10:56:33.630Z,4.70
2018-11-25T11:01:56.676Z,4.70
2018-11-25T11:07:05.208Z,4.70
2018-11-25T11:12:08.574Z,4.70
2018-11-25T11:17:11.851Z,4.80
2018-11-25T11:22:15.128Z,4.70
2018-11-25T11:27:18.424Z,4.70
2018-11-25T11:32:21.697Z,4.70
2018-11-25T11:37:25.041Z,4.80
2018-11-25T11:42:28.762Z,5.00
2018-11-25T11:47:31.711Z,5.00
2018-11-25T11:52:35.025Z,5.10
2018-11-25T11:57:38.508Z,5.20
2018-11-25T12:02:41.814Z,5.30
2018-11-25T12:07:45.137Z,5.40
2018-11-25T12:17:51.492Z,5.40
2018-11-25T12:22:55.452Z,5.40
2018-11-25T12:27:58.742Z,5.30
2018-11-25T12:33:02.139Z,5.20
2018-11-25T12:38:06.154Z,5.20
2018-11-25T12:43:09.451Z,5.20
2018-11-25T12:48:13.146Z,5.30
2018-11-25T12:53:18.562Z,5.40
2018-11-25T12:58:21.927Z,5.40
2018-11-25T13:03:25.258Z,5.30
2018-11-25T13:08:28.570Z,5.40
2018-11-25T13:13:31.874Z,5.50
2018-11-25T13:18:35.849Z,5.40
2018-11-25T13:23:43.094Z,5.40
2018-11-25T13:28:42.204Z,5.50
2018-11-25T13:33:45.589Z,5.40
2018-11-25T13:38:48.886Z,5.40
2018-11-25T13:43:52.171Z,5.30
2018-11-25T13:48:55.522Z,5.40
2018-11-25T13:53:59.255Z,5.30
2018-11-25T13:59:02.706Z,5.30
2018-11-25T14:04:06.306Z,5.40
2018-11-25T14:09:12.565Z,5.30
2018-11-25T14:14:16.010Z,5.30
2018-11-25T14:19:19.333Z,5.30
2018-11-25T14:24:22.695Z,5.20
2018-11-25T14:29:26.430Z,5.30
2018-11-25T14:34:29.871Z,5.30
2018-11-25T14:39:33.217Z,5.20
2018-11-25T14:44:36.561Z,5.10
2018-11-25T14:49:39.976Z,5.00
2018-11-25T14:54:51.023Z,5.00
2018-11-25T14:59:46.708Z,4.90
2018-11-25T15:04:50.079Z,4.90
2018-11-25T15:09:53.393Z,4.90
2018-11-25T15:14:56.802Z,4.80
2018-11-25T15:20:00.226Z,4.80
2018-11-25T15:25:03.631Z,4.80
2018-11-25T15:30:09.675Z,4.80
2018-11-25T15:35:13.311Z,4.70
2018-11-25T15:40:18.362Z,4.70
2018-11-25T15:45:21.712Z,4.50
2018-11-25T15:50:26.491Z,4.50
2018-11-25T15:55:29.869Z,4.50
2018-11-25T16:00:33.284Z,4.40
2018-11-25T16:05:56.229Z,4.40
2018-11-25T16:10:59.567Z,4.40
2018-11-25T16:16:02.952Z,4.40
2018-11-25T16:21:06.494Z,4.40
2018-11-25T16:26:13.154Z,4.40
2018-11-25T16:31:16.587Z,4.40
2018-11-25T16:36:19.963Z,4.40
2018-11-25T16:41:23.395Z,4.50
2018-11-25T16:46:26.748Z,4.50
2018-11-25T16:51:30.214Z,4.50
2018-11-25T16:56:33.572Z,4.60
2018-11-25T17:01:36.923Z,4.50
2018-11-25T17:06:41.541Z,4.60
2018-11-25T17:11:44.924Z,4.60
2018-11-25T17:16:48.481Z,4.60
2018-11-25T17:21:51.859Z,4.60
2018-11-25T17:26:55.282Z,4.60
2018-11-25T17:31:58.806Z,4.60
2018-11-25T17:37:02.211Z,4.60
2018-11-25T17:42:05.846Z,4.70
2018-11-25T17:47:09.266Z,4.70
2018-11-25T17:52:12.690Z,4.70
2018-11-25T17:57:16.088Z,4.60
2018-11-25T18:02:19.561Z,4.60
2018-11-25T18:07:23.049Z,4.60
2018-11-25T18:12:26.523Z,4.60
2018-11-25T18:17:29.953Z,4.60
2018-11-25T18:22:34.191Z,4.60
2018-11-25T18:27:37.581Z,4.60
2018-11-25T18:32:41.202Z,4.50
2018-11-25T18:37:44.497Z,4.50
2018-11-25T18:42:47.904Z,4.50
2018-11-25T18:47:51.422Z,4.50
2018-11-25T18:52:55.140Z,4.60
2018-11-25T18:57:58.553Z,4.60
2018-11-25T19:03:01.968Z,4.50
2018-11-25T19:08:06.461Z,4.50
2018-11-25T19:13:09.943Z,4.50
2018-11-25T19:18:13.457Z,4.50
2018-11-25T19:23:16.808Z,4.50
2018-11-25T19:28:20.176Z,4.50
2018-11-25T19:33:23.806Z,4.50
2018-11-25T19:38:27.264Z,4.50
2018-11-25T19:43:30.695Z,4.50
2018-11-25T19:48:34.127Z,4.50
2018-11-25T19:53:37.617Z,4.50
2018-11-25T19:58:41.041Z,4.50
2018-11-25T20:03:44.627Z,4.50
2018-11-25T20:08:48.087Z,4.50
2018-11-25T20:13:51.442Z,4.40
2018-11-25T20:18:55.970Z,4.40
2018-11-25T20:23:59.489Z,4.40
2018-11-25T20:29:03.026Z,4.40
2018-11-25T20:34:09.405Z,4.30
2018-11-25T20:39:18.016Z,4.30
2018-11-25T20:44:21.357Z,4.30
2018-11-25T20:49:24.788Z,4.30
2018-11-25T20:54:28.166Z,4.20
2018-11-25T20:59:31.565Z,4.20
2018-11-25T21:04:34.929Z,4.20
2018-11-25T21:09:38.211Z,4.20
2018-11-25T21:14:41.542Z,4.10
2018-11-25T21:19:44.897Z,4.10
2018-11-25T21:24:48.181Z,4.10
2018-11-25T21:29:51.484Z,4.00
2018-11-25T21:34:54.830Z,4.00
2018-11-25T21:39:58.182Z,4.00
2018-11-25T21:45:01.478Z,4.00
2018-11-25T21:50:06.621Z,4.00
2018-11-25T21:55:11.067Z,3.90
2018-11-25T22:00:23.249Z,3.90
2018-11-25T22:05:26.626Z,3.90
2018-11-25T22:10:29.897Z,3.80
2018-11-25T22:15:33.156Z,3.80
2018-11-25T22:20:36.532Z,3.80
2018-11-25T22:25:39.831Z,3.80
2018-11-25T22:30:43.234Z,3.70
2018-11-25T22:35:46.503Z,3.60
2018-11-25T22:40:49.778Z,3.70
2018-11-25T22:50:56.119Z,3.70
2018-11-25T22:55:59.397Z,3.70
2018-11-25T23:01:02.661Z,3.60
2018-11-25T23:06:18.018Z,3.60
2018-11-25T23:11:21.397Z,3.60
2018-11-25T23:16:24.682Z,3.60
2018-11-25T23:21:27.953Z,3.60
2018-11-25T23:26:31.283Z,3.60
2018-11-25T23:31:34.648Z,3.70
2018-11-25T23:36:37.954Z,3.80
2018-11-25T23:41:41.279Z,3.90
2018-11-25T23:46:44.589Z,3.80
2018-11-25T23:51:47.862Z,3.80
2018-11-25T23:56:51.182Z,3.90
